createdAt,value
2023-04-18T00:01:42.729Z,99.90
2023-04-18T00:04:09.596Z,99.90
2023-04-18T00:06:36.355Z,99.90
2023-04-18T00:09:03.822Z,99.90
2023-04-18T00:11:30.462Z,99.90
2023-04-18T00:13:57.504Z,99.90
2023-04-18T00:16:24.594Z,99.90
2023-04-18T00:18:52.841Z,99.90
2023-04-18T00:21:19.477Z,99.90
2023-04-18T00:23:46.172Z,99.90
2023-04-18T00:26:13.098Z,99.90
2023-04-18T00:28:39.742Z,99.90
2023-04-18T00:31:06.607Z,99.90
2023-04-18T00:33:34.353Z,99.90
2023-04-18T00:36:00.986Z,99.90
2023-04-18T00:38:27.571Z,99.90
2023-04-18T00:40:54.271Z,99.90
2023-04-18T00:43:23.358Z,99.90
2023-04-18T00:45:50.171Z,99.90
2023-04-18T00:48:17.427Z,99.90
2023-04-18T00:50:45.125Z,99.90
2023-04-18T00:53:11.823Z,99.90
2023-04-18T00:55:39.132Z,99.90
2023-04-18T00:58:06.425Z,99.90
2023-04-18T01:00:33.103Z,99.90
2023-04-18T01:03:00.085Z,99.90
2023-04-18T01:05:26.959Z,99.60
2023-04-18T01:07:58.651Z,98.80
2023-04-18T01:10:25.978Z,98.20
2023-04-18T01:13:10.427Z,97.30
2023-04-18T01:15:37.387Z,95.30
2023-04-18T01:18:04.261Z,96.60
2023-04-18T01:20:31.359Z,96.60
2023-04-18T01:22:58.920Z,95.70
2023-04-18T01:25:25.922Z,95.60
2023-04-18T01:27:54.060Z,94.60
2023-04-18T01:30:20.787Z,94.20
2023-04-18T01:32:47.438Z,93.40
2023-04-18T01:35:14.731Z,92.30
2023-04-18T01:37:41.570Z,91.70
2023-04-18T01:40:09.218Z,92.10
2023-04-18T01:42:35.849Z,92.60
2023-04-18T01:45:05.192Z,92.50
2023-04-18T01:47:31.876Z,91.60
2023-04-18T01:49:58.790Z,91.80
2023-04-18T01:52:26.134Z,92.40
2023-04-18T01:54:52.866Z,91.50
2023-04-18T01:57:19.435Z,91.80
2023-04-18T01:59:46.086Z,91.90
2023-04-18T02:02:12.736Z,91.80
2023-04-18T02:04:39.485Z,92.30
2023-04-18T02:07:06.266Z,92.10
2023-04-18T02:09:32.943Z,91.90
2023-04-18T02:12:02.623Z,92.40
2023-04-18T02:14:32.339Z,92.30
2023-04-18T02:16:59.585Z,92.90
2023-04-18T02:19:26.267Z,92.60
2023-04-18T02:21:53.047Z,92.40
2023-04-18T02:24:19.787Z,92.50
2023-04-18T02:26:46.584Z,92.60
2023-04-18T02:29:13.281Z,92.80
2023-04-18T02:31:40.892Z,93.50
2023-04-18T02:34:08.166Z,93.40
2023-04-18T02:36:34.952Z,93.80
2023-04-18T02:39:01.622Z,93.50
2023-04-18T02:41:28.257Z,93.60
2023-04-18T02:43:55.163Z,94.40
2023-04-18T02:46:21.842Z,94.30
2023-04-18T02:48:48.440Z,94.50
2023-04-18T02:51:15.241Z,94.30
2023-04-18T02:53:41.861Z,95.00
2023-04-18T02:56:08.438Z,94.40
2023-04-18T02:58:36.357Z,94.60
2023-04-18T03:01:03.211Z,94.90
2023-04-18T03:03:29.920Z,94.50
2023-04-18T03:05:56.630Z,95.50
2023-04-18T03:08:23.206Z,94.60
2023-04-18T03:10:49.832Z,94.70
2023-04-18T03:13:16.841Z,95.30
2023-04-18T03:15:43.563Z,95.40
2023-04-18T03:18:12.334Z,95.50
2023-04-18T03:20:39.906Z,95.90
2023-04-18T03:23:06.501Z,95.90
2023-04-18T03:25:34.165Z,95.50
2023-04-18T03:28:00.799Z,96.20
2023-04-18T03:30:27.456Z,96.50
2023-04-18T03:32:56.100Z,95.90
2023-04-18T03:35:23.106Z,96.10
2023-04-18T03:37:49.754Z,96.90
2023-04-18T03:40:16.412Z,96.50
2023-04-18T03:42:42.993Z,96.60
2023-04-18T03:45:09.942Z,96.60
2023-04-18T03:47:36.571Z,97.10
2023-04-18T03:50:03.405Z,97.10
2023-04-18T03:52:30.065Z,97.30
2023-04-18T03:54:56.662Z,97.30
2023-04-18T03:57:23.278Z,97.50
2023-04-18T03:59:50.094Z,97.40
2023-04-18T04:02:16.816Z,97.90
2023-04-18T04:04:43.569Z,98.10
2023-04-18T04:07:10.789Z,97.50
2023-04-18T04:09:37.453Z,98.00
2023-04-18T04:12:04.301Z,97.80
2023-04-18T04:14:30.885Z,98.20
2023-04-18T04:16:57.504Z,98.30
2023-04-18T04:19:24.210Z,98.50
2023-04-18T04:21:51.130Z,98.50
2023-04-18T04:24:17.833Z,98.60
2023-04-18T04:26:44.445Z,98.80
2023-04-18T04:29:11.084Z,98.30
2023-04-18T04:31:37.692Z,98.70
2023-04-18T04:34:04.952Z,98.50
2023-04-18T04:36:33.218Z,98.40
2023-04-18T04:38:59.786Z,98.30
2023-04-18T04:41:27.724Z,98.50
2023-04-18T04:43:54.457Z,98.70
2023-04-18T04:46:21.544Z,98.60
2023-04-18T04:48:49.682Z,98.60
2023-04-18T04:51:16.257Z,98.60
2023-04-18T04:53:42.847Z,98.80
2023-04-18T04:56:09.572Z,99.10
2023-04-18T04:58:36.811Z,99.20
2023-04-18T05:01:03.559Z,98.90
2023-04-18T05:03:30.429Z,99.60
2023-04-18T05:05:57.187Z,99.60
2023-04-18T05:08:23.873Z,99.90
2023-04-18T05:10:51.023Z,99.80
2023-04-18T05:13:17.668Z,99.80
2023-04-18T05:15:44.653Z,99.90
2023-04-18T05:18:11.439Z,99.90
2023-04-18T05:20:38.007Z,99.90
2023-04-18T05:23:04.583Z,99.90
2023-04-18T05:25:31.830Z,99.90
2023-04-18T05:28:00.421Z,99.90
2023-04-18T05:30:27.213Z,99.90
2023-04-18T05:32:53.958Z,99.90
2023-04-18T05:35:20.625Z,99.90
2023-04-18T05:37:47.259Z,99.90
2023-04-18T05:40:14.158Z,99.90
2023-04-18T05:42:41.016Z,99.90
2023-04-18T05:45:08.219Z,99.90
2023-04-18T05:47:34.895Z,99.90
2023-04-18T05:50:01.589Z,99.90
2023-04-18T05:52:28.325Z,99.90
2023-04-18T05:54:54.898Z,99.90
2023-04-18T05:57:21.491Z,99.90
2023-04-18T05:59:48.202Z,99.90
2023-04-18T06:02:14.915Z,99.90
2023-04-18T06:04:42.910Z,99.90
2023-04-18T06:07:10.158Z,99.90
2023-04-18T06:09:36.900Z,99.90
2023-04-18T06:12:03.978Z,99.90
2023-04-18T06:14:30.745Z,99.90
2023-04-18T06:16:57.577Z,99.90
2023-04-18T06:19:24.211Z,99.90
2023-04-18T06:21:51.914Z,99.90
2023-04-18T06:24:18.554Z,99.90
2023-04-18T06:26:45.225Z,99.90
2023-04-18T06:29:12.839Z,99.90
2023-04-18T06:31:39.519Z,99.90
2023-04-18T06:34:06.528Z,99.90
2023-04-18T06:36:33.457Z,99.90
2023-04-18T06:39:00.329Z,99.90
2023-04-18T06:41:26.928Z,99.90
2023-04-18T06:44:03.650Z,99.90
2023-04-18T06:46:31.686Z,99.90
2023-04-18T06:48:58.444Z,99.90
2023-04-18T06:51:25.051Z,99.90
2023-04-18T06:53:53.581Z,99.90
2023-04-18T06:56:20.667Z,99.90
2023-04-18T06:58:47.891Z,99.90
2023-04-18T07:01:14.729Z,99.90
2023-04-18T07:03:41.463Z,99.90
2023-04-18T07:06:10.504Z,99.90
2023-04-18T07:08:37.558Z,99.90
2023-04-18T07:11:04.382Z,99.90
2023-04-18T07:13:30.958Z,99.90
2023-04-18T07:15:57.589Z,99.90
2023-04-18T07:18:36.598Z,99.90
2023-04-18T07:21:07.171Z,99.90
2023-04-18T07:23:33.921Z,99.90
2023-04-18T07:26:02.523Z,99.90
2023-04-18T07:28:29.720Z,99.90
2023-04-18T07:30:57.050Z,99.90
2023-04-18T07:33:24.588Z,99.90
2023-04-18T07:35:52.956Z,99.90
2023-04-18T07:38:19.691Z,99.90
2023-04-18T07:40:46.301Z,99.90
2023-04-18T07:43:12.902Z,99.90
2023-04-18T07:45:39.554Z,99.90
2023-04-18T07:48:06.532Z,99.90
2023-04-18T07:50:33.163Z,99.90
2023-04-18T07:53:01.309Z,99.90
2023-04-18T07:55:27.935Z,99.90
2023-04-18T07:57:54.493Z,99.90
2023-04-18T08:00:21.374Z,99.90
2023-04-18T08:02:48.073Z,99.90
2023-04-18T08:05:14.961Z,99.90
2023-04-18T08:07:41.660Z,99.40
2023-04-18T08:10:08.726Z,98.60
2023-04-18T08:12:36.568Z,98.90
2023-04-18T08:15:04.320Z,98.50
2023-04-18T08:17:31.164Z,98.10
2023-04-18T08:19:57.820Z,97.20
2023-04-18T08:22:24.442Z,98.00
2023-04-18T08:25:03.768Z,95.50
2023-04-18T08:27:31.855Z,96.30
2023-04-18T08:29:58.596Z,95.70
2023-04-18T08:32:25.863Z,93.40
2023-04-18T08:34:52.525Z,93.20
2023-04-18T08:37:19.179Z,92.90
2023-04-18T08:39:45.909Z,92.60
2023-04-18T08:42:17.015Z,91.50
2023-04-18T08:44:44.995Z,93.40
2023-04-18T08:47:12.728Z,93.50
2023-04-18T08:49:40.085Z,92.50
2023-04-18T08:52:19.111Z,90.80
2023-04-18T08:54:47.202Z,90.70
2023-04-18T08:57:28.244Z,92.40
2023-04-18T08:59:55.431Z,91.00
2023-04-18T09:02:28.517Z,91.20
2023-04-18T09:04:55.794Z,91.90
2023-04-18T09:07:29.625Z,90.80
2023-04-18T09:09:57.623Z,87.80
2023-04-18T09:12:26.682Z,88.80
2023-04-18T09:14:57.796Z,87.50
2023-04-18T09:17:41.540Z,86.50
2023-04-18T09:20:10.779Z,88.90
2023-04-18T09:22:51.846Z,88.20
2023-04-18T09:25:29.346Z,89.40
2023-04-18T09:28:00.804Z,89.50
2023-04-18T09:30:39.295Z,87.90
2023-04-18T09:33:09.961Z,90.20
2023-04-18T09:35:37.686Z,88.00
2023-04-18T09:38:05.498Z,90.00
2023-04-18T09:40:33.030Z,90.10
2023-04-18T09:43:00.144Z,84.70
2023-04-18T09:45:26.989Z,82.30
2023-04-18T09:47:54.275Z,73.30
2023-04-18T09:50:21.251Z,72.60
2023-04-18T09:52:48.647Z,76.80
2023-04-18T09:55:17.593Z,76.90
2023-04-18T09:57:48.270Z,74.60
2023-04-18T10:00:27.100Z,80.50
2023-04-18T10:03:08.647Z,78.30
2023-04-18T10:05:38.320Z,78.50
2023-04-18T10:08:06.000Z,83.00
2023-04-18T10:10:33.184Z,78.10
2023-04-18T10:13:02.473Z,79.20
2023-04-18T10:15:30.825Z,80.30
2023-04-18T10:18:05.136Z,79.70
2023-04-18T10:20:34.680Z,81.90
2023-04-18T10:23:30.656Z,79.30
2023-04-18T10:25:57.915Z,79.50
2023-04-18T10:28:26.411Z,83.10
2023-04-18T10:30:54.370Z,80.90
2023-04-18T10:33:41.038Z,80.80
2023-04-18T10:36:09.484Z,78.00
2023-04-18T10:38:44.996Z,76.60
2023-04-18T10:41:15.822Z,77.50
2023-04-18T10:44:10.306Z,76.20
2023-04-18T10:46:38.664Z,77.70
2023-04-18T10:49:25.161Z,76.60
2023-04-18T10:51:55.314Z,78.80
2023-04-18T10:54:46.490Z,78.10
2023-04-18T10:57:13.816Z,76.60
2023-04-18T10:59:51.454Z,74.20
2023-04-18T11:02:24.224Z,68.80
2023-04-18T11:04:55.347Z,71.60
2023-04-18T11:07:48.965Z,69.80
2023-04-18T11:10:21.179Z,72.70
2023-04-18T11:12:48.120Z,73.30
2023-04-18T11:15:17.631Z,73.60
2023-04-18T11:17:44.488Z,73.40
2023-04-18T11:20:13.644Z,69.30
2023-04-18T11:22:52.369Z,70.20
2023-04-18T11:25:24.936Z,69.20
2023-04-18T11:27:51.755Z,72.40
2023-04-18T11:30:18.697Z,72.90
2023-04-18T11:32:45.489Z,71.90
2023-04-18T11:35:13.885Z,72.40
2023-04-18T11:37:41.521Z,70.70
2023-04-18T11:40:12.296Z,69.60
2023-04-18T11:42:40.525Z,71.70
2023-04-18T11:45:12.721Z,66.20
2023-04-18T11:47:41.820Z,69.70
2023-04-18T11:50:10.188Z,66.60
2023-04-18T11:52:37.800Z,68.00
2023-04-18T11:55:21.027Z,68.90
2023-04-18T11:57:55.704Z,68.90
2023-04-18T12:00:39.800Z,69.30
2023-04-18T12:03:11.822Z,70.90
2023-04-18T12:05:40.228Z,71.40
2023-04-18T12:08:14.116Z,74.30
2023-04-18T12:10:51.502Z,74.20
2023-04-18T12:13:19.847Z,73.90
2023-04-18T12:15:46.941Z,73.70
2023-04-18T12:18:15.284Z,73.90
2023-04-18T12:20:50.036Z,73.70
2023-04-18T12:23:38.774Z,75.90
2023-04-18T12:26:22.899Z,76.00
2023-04-18T12:28:51.142Z,77.00
2023-04-18T12:31:18.278Z,76.30
2023-04-18T12:33:44.933Z,75.40
2023-04-18T12:36:11.794Z,73.90
2023-04-18T12:38:38.418Z,74.50
2023-04-18T12:41:05.606Z,73.60
2023-04-18T12:43:32.352Z,72.90
2023-04-18T12:45:59.577Z,72.50
2023-04-18T12:48:26.265Z,74.50
2023-04-18T12:50:52.881Z,73.80
2023-04-18T12:53:19.552Z,75.50
2023-04-18T12:55:46.433Z,73.80
2023-04-18T12:58:18.363Z,72.00
2023-04-18T13:00:45.216Z,71.50
2023-04-18T13:03:13.430Z,64.30
2023-04-18T13:05:40.397Z,67.10
2023-04-18T13:08:16.106Z,66.00
2023-04-18T13:10:44.378Z,68.10
2023-04-18T13:13:11.024Z,66.70
2023-04-18T13:15:37.925Z,67.00
2023-04-18T13:18:06.536Z,67.60
2023-04-18T13:20:33.992Z,68.80
2023-04-18T13:23:02.452Z,69.80
2023-04-18T13:25:29.223Z,69.20
2023-04-18T13:27:57.436Z,69.10
2023-04-18T13:30:24.121Z,69.00
2023-04-18T13:32:50.722Z,71.00
2023-04-18T13:35:17.509Z,72.60
2023-04-18T13:37:44.107Z,70.90
2023-04-18T13:40:11.340Z,72.00
2023-04-18T13:42:38.745Z,73.30
2023-04-18T13:45:05.958Z,73.90
2023-04-18T13:47:32.648Z,74.20
2023-04-18T13:49:59.405Z,74.50
2023-04-18T13:52:26.240Z,77.60
2023-04-18T13:54:53.197Z,77.00
2023-04-18T13:57:20.190Z,75.40
2023-04-18T13:59:46.849Z,74.10
2023-04-18T14:02:13.710Z,76.70
2023-04-18T14:04:40.732Z,77.70
2023-04-18T14:07:08.111Z,75.90
2023-04-18T14:09:35.023Z,79.60
2023-04-18T14:12:02.032Z,76.20
2023-04-18T14:14:29.079Z,76.90
2023-04-18T14:16:55.686Z,76.70
2023-04-18T14:19:22.382Z,75.20
2023-04-18T14:21:48.977Z,74.60
2023-04-18T14:24:15.628Z,72.80
2023-04-18T14:26:42.274Z,72.60
2023-04-18T14:29:08.898Z,67.80
2023-04-18T14:31:35.780Z,70.30
2023-04-18T14:34:02.641Z,69.10
2023-04-18T14:36:29.315Z,68.60
2023-04-18T14:38:55.964Z,68.60
2023-04-18T14:41:22.597Z,66.80
2023-04-18T14:43:49.302Z,66.10
2023-04-18T14:46:16.583Z,64.80
2023-04-18T14:48:49.454Z,67.70
2023-04-18T14:51:17.000Z,67.00
2023-04-18T14:53:44.758Z,63.20
2023-04-18T14:56:11.722Z,64.60
2023-04-18T14:58:38.406Z,62.20
2023-04-18T15:01:05.448Z,63.40
2023-04-18T15:03:32.403Z,61.50
2023-04-18T15:05:59.196Z,59.60
2023-04-18T15:08:25.926Z,60.70
2023-04-18T15:10:52.645Z,61.80
2023-04-18T15:13:19.481Z,60.80
2023-04-18T15:15:53.953Z,61.00
2023-04-18T15:18:21.195Z,58.70
2023-04-18T15:20:47.853Z,57.70
2023-04-18T15:23:15.110Z,56.50
2023-04-18T15:25:43.770Z,57.40
2023-04-18T15:28:10.461Z,58.00
2023-04-18T15:30:38.423Z,59.10
2023-04-18T15:33:05.275Z,59.90
2023-04-18T15:35:31.892Z,59.40
2023-04-18T15:37:58.521Z,60.70
2023-04-18T15:40:25.125Z,60.10
2023-04-18T15:42:54.019Z,60.50
2023-04-18T15:45:21.734Z,60.10
2023-04-18T15:47:48.471Z,60.20
2023-04-18T15:50:16.281Z,57.70
2023-04-18T15:52:43.910Z,55.90
2023-04-18T15:55:12.894Z,55.20
2023-04-18T15:57:40.578Z,54.30
2023-04-18T16:00:16.219Z,54.30
2023-04-18T16:02:44.790Z,53.80
2023-04-18T16:05:12.461Z,55.10
2023-04-18T16:07:42.800Z,56.00
2023-04-18T16:10:10.907Z,57.00
2023-04-18T16:12:38.832Z,57.70
2023-04-18T16:15:07.282Z,56.90
2023-04-18T16:17:34.428Z,57.60
2023-04-18T16:20:02.439Z,58.00
2023-04-18T16:22:29.176Z,57.30
2023-04-18T16:24:55.795Z,57.30
2023-04-18T16:27:22.521Z,57.00
2023-04-18T16:29:49.645Z,57.00
2023-04-18T16:32:16.510Z,56.70
2023-04-18T16:34:44.119Z,56.40
2023-04-18T16:37:11.134Z,56.10
2023-04-18T16:39:38.147Z,56.90
2023-04-18T16:42:05.055Z,55.50
2023-04-18T16:44:33.060Z,57.30
2023-04-18T16:46:59.777Z,57.20
2023-04-18T16:49:26.699Z,56.80
2023-04-18T16:51:53.335Z,56.20
2023-04-18T16:54:19.925Z,56.40
2023-04-18T16:56:46.572Z,55.50
2023-04-18T16:59:13.570Z,55.60
2023-04-18T17:01:40.652Z,56.00
2023-04-18T17:04:07.383Z,57.60
2023-04-18T17:06:34.331Z,56.70
2023-04-18T17:09:02.322Z,57.10
2023-04-18T17:11:30.101Z,57.50
2023-04-18T17:13:56.658Z,57.70
2023-04-18T17:16:23.483Z,58.20
2023-04-18T17:18:50.140Z,57.70
2023-04-18T17:21:17.279Z,58.60
2023-04-18T17:23:43.935Z,59.10
2023-04-18T17:26:10.664Z,60.10
2023-04-18T17:28:37.523Z,59.20
2023-04-18T17:31:04.535Z,60.10
2023-04-18T17:33:31.717Z,59.30
2023-04-18T17:35:58.782Z,59.60
2023-04-18T17:38:25.670Z,60.30
2023-04-18T17:40:59.918Z,60.10
2023-04-18T17:43:26.790Z,60.70
2023-04-18T17:45:53.977Z,60.50
2023-04-18T17:48:21.146Z,61.00
2023-04-18T17:50:48.249Z,61.60
2023-04-18T17:53:14.892Z,60.90
2023-04-18T17:55:41.726Z,62.60
2023-04-18T17:58:08.933Z,63.10
2023-04-18T18:00:35.916Z,62.90
2023-04-18T18:03:03.485Z,63.20
2023-04-18T18:05:30.724Z,64.10
2023-04-18T18:07:59.430Z,64.00
2023-04-18T18:10:26.473Z,64.10
2023-04-18T18:12:53.093Z,64.50
2023-04-18T18:15:19.835Z,66.30
2023-04-18T18:17:49.763Z,66.80
2023-04-18T18:20:17.027Z,65.90
2023-04-18T18:22:45.595Z,67.30
2023-04-18T18:25:12.283Z,68.00
2023-04-18T18:27:41.730Z,70.20
2023-04-18T18:30:08.734Z,71.90
2023-04-18T18:32:35.377Z,69.20
2023-04-18T18:35:02.840Z,71.80
2023-04-18T18:37:29.538Z,72.70
2023-04-18T18:39:56.518Z,74.10
2023-04-18T18:42:23.349Z,74.50
2023-04-18T18:44:50.496Z,77.30
2023-04-18T18:47:18.096Z,75.70
2023-04-18T18:49:44.788Z,77.30
2023-04-18T18:52:11.717Z,81.20
2023-04-18T18:54:38.282Z,78.90
2023-04-18T18:57:04.930Z,79.60
2023-04-18T18:59:31.622Z,79.40
2023-04-18T19:01:58.320Z,79.00
2023-04-18T19:04:25.557Z,79.90
2023-04-18T19:06:53.417Z,81.90
2023-04-18T19:09:20.218Z,82.70
2023-04-18T19:11:48.458Z,83.70
2023-04-18T19:14:15.401Z,83.30
2023-04-18T19:16:43.825Z,84.10
2023-04-18T19:19:10.554Z,84.80
2023-04-18T19:21:40.028Z,84.60
2023-04-18T19:24:06.842Z,83.40
2023-04-18T19:26:33.762Z,84.80
2023-04-18T19:29:00.396Z,84.60
2023-04-18T19:31:27.077Z,85.90
2023-04-18T19:33:53.798Z,85.50
2023-04-18T19:36:24.278Z,85.60
2023-04-18T19:38:50.882Z,86.40
2023-04-18T19:41:17.466Z,86.60
2023-04-18T19:43:44.253Z,85.90
2023-04-18T19:46:11.338Z,87.20
2023-04-18T19:48:38.466Z,86.70
2023-04-18T19:51:05.202Z,87.00
2023-04-18T19:53:32.085Z,87.10
2023-04-18T19:55:58.734Z,86.30
2023-04-18T19:58:44.975Z,87.20
2023-04-18T20:01:13.011Z,86.80
2023-04-18T20:03:43.238Z,86.00
2023-04-18T20:06:10.839Z,87.00
2023-04-18T20:08:41.502Z,86.80
2023-04-18T20:11:10.095Z,87.40
2023-04-18T20:13:37.603Z,87.50
2023-04-18T20:16:05.659Z,87.60
2023-04-18T20:18:33.903Z,88.30
2023-04-18T20:21:00.569Z,87.90
2023-04-18T20:23:27.144Z,87.80
2023-04-18T20:25:53.732Z,87.80
2023-04-18T20:28:20.356Z,88.40
2023-04-18T20:30:47.900Z,90.00
2023-04-18T20:33:14.656Z,89.70
2023-04-18T20:35:41.544Z,89.80
2023-04-18T20:38:08.930Z,90.10
2023-04-18T20:40:36.032Z,90.00
2023-04-18T20:43:06.792Z,90.20
2023-04-18T20:45:37.516Z,90.50
2023-04-18T20:48:04.787Z,91.00
2023-04-18T20:50:31.468Z,90.90
2023-04-18T20:53:00.370Z,91.30
2023-04-18T20:55:27.220Z,91.60
2023-04-18T20:57:53.816Z,91.80
2023-04-18T21:00:20.505Z,91.70
2023-04-18T21:02:47.263Z,91.60
2023-04-18T21:05:13.976Z,92.30
2023-04-18T21:07:40.741Z,92.60
2023-04-18T21:10:07.944Z,92.80
2023-04-18T21:12:34.564Z,92.10
2023-04-18T21:15:01.410Z,92.50
2023-04-18T21:17:28.114Z,93.10
2023-04-18T21:19:55.752Z,93.20
2023-04-18T21:22:22.370Z,93.30
2023-04-18T21:24:49.026Z,93.10
2023-04-18T21:27:16.187Z,93.20
2023-04-18T21:29:42.860Z,93.20
2023-04-18T21:32:09.671Z,93.20
2023-04-18T21:34:36.575Z,93.20
2023-04-18T21:37:03.367Z,93.20
2023-04-18T21:39:29.983Z,93.40
2023-04-18T21:41:57.212Z,93.40
2023-04-18T21:44:23.864Z,94.00
2023-04-18T21:46:50.701Z,93.70
2023-04-18T21:49:17.296Z,93.90
2023-04-18T21:51:44.789Z,93.70
2023-04-18T21:54:11.631Z,94.10
2023-04-18T21:56:38.623Z,94.10
2023-04-18T21:59:05.202Z,94.30
2023-04-18T22:01:34.250Z,94.60
2023-04-18T22:04:01.882Z,94.60
2023-04-18T22:06:29.313Z,94.90
2023-04-18T22:08:55.973Z,94.80
2023-04-18T22:11:23.604Z,95.00
2023-04-18T22:13:53.983Z,94.90
2023-04-18T22:16:24.636Z,95.10
2023-04-18T22:18:51.603Z,95.30
2023-04-18T22:21:18.189Z,95.30
2023-04-18T22:23:45.602Z,95.90
2023-04-18T22:26:12.258Z,95.90
2023-04-18T22:28:38.898Z,96.10
2023-04-18T22:31:05.784Z,96.90
2023-04-18T22:33:32.481Z,96.50
2023-04-18T22:35:59.058Z,96.50
2023-04-18T22:38:25.835Z,96.90
2023-04-18T22:40:52.684Z,97.30
2023-04-18T22:43:22.857Z,97.10
2023-04-18T22:45:49.817Z,97.60
2023-04-18T22:48:17.063Z,97.70
2023-04-18T22:50:43.733Z,97.90
2023-04-18T22:53:11.375Z,98.20
2023-04-18T22:55:40.350Z,98.10
2023-04-18T22:58:07.797Z,98.50
2023-04-18T23:00:34.455Z,98.80
2023-04-18T23:03:01.250Z,98.80
2023-04-18T23:05:29.966Z,99.20
2023-04-18T23:07:59.644Z,99.50
2023-04-18T23:10:26.934Z,99.50
2023-04-18T23:12:53.587Z,99.50
2023-04-18T23:15:22.691Z,99.80
2023-04-18T23:17:51.899Z,99.90
2023-04-18T23:20:19.091Z,99.90
2023-04-18T23:22:46.596Z,99.90
2023-04-18T23:25:13.267Z,99.90
2023-04-18T23:27:40.136Z,99.90
2023-04-18T23:30:07.598Z,99.90
2023-04-18T23:32:34.350Z,99.90
2023-04-18T23:35:04.222Z,99.90
2023-04-18T23:37:31.501Z,99.90
2023-04-18T23:39:59.375Z,99.90
2023-04-18T23:42:26.171Z,99.90
2023-04-18T23:44:52.860Z,99.90
2023-04-18T23:47:19.569Z,99.90
2023-04-18T23:49:46.343Z,99.90
2023-04-18T23:52:13.013Z,99.90
2023-04-18T23:54:39.683Z,99.90
2023-04-18T23:57:08.797Z,99.90
2023-04-18T23:59:35.415Z,99.90
